Time;durP1;ratioP1;P1;durP2;ratioP2;P2;SDS_P1;SDS_P2;PMS_P1;PMS_P2;Temp;Humidity;BMP_temperature;BMP_pressure;BME280_temperature;BME280_humidity;BME280_pressure;Samples;Min_cycle;Max_cycle;Signal;HPM_P1;HPM_P2
2021/12/08 00:02:16;;;;;;;;;;;;;;;;;;4912606;29;1142;-59
2021/12/08 00:04:42;;;;;;;;;;;;;;;;;;4912344;29;957;-59
2021/12/08 00:07:08;;;;;;;;;;;;;;;;;;4913186;29;779;-59
2021/12/08 00:09:47;;;;;;;;;;;;;;;;;;4912650;29;824;-59
2021/12/08 00:14:56;;;;;;;;;;;;;;;;;;4912325;29;815;-59
2021/12/08 00:17:21;;;;;;;;;;;;;;;;;;4911773;29;1586;-59
2021/12/08 00:19:47;;;;;;;;;;;;;;;;;;4911337;29;1910;-59
2021/12/08 00:22:12;;;;;;;;;;;;;;;;;;4912734;29;975;-59
2021/12/08 00:24:38;;;;;;;;;;;;;;;;;;4911904;29;823;-59
2021/12/08 00:27:03;;;;;;;;;;;;;;;;;;4911925;29;842;-59
2021/12/08 00:29:29;;;;;;;;;;;;;;;;;;4911862;29;1004;-59
2021/12/08 00:31:54;;;;;;;;;;;;;;;;;;4911911;29;826;-59
2021/12/08 00:34:19;;;;;;;;;;;;;;;;;;4912476;29;899;-59
2021/12/08 00:36:49;;;;;;;;;;;;;;;;;;4910680;29;1460;-59
2021/12/08 00:39:14;;;;;;;;;;;;;;;;;;4912047;29;1902;-59
2021/12/08 00:41:40;;;;;;;;;;;;;;;;;;4911888;29;857;-59
2021/12/08 00:44:05;;;;;;;;;;;;;;;;;;4912039;29;992;-59
2021/12/08 00:46:31;;;;;;;;;;;;;;;;;;4911839;29;925;-59
2021/12/08 00:48:56;;;;;;;;;;;;;;;;;;4911566;29;839;-59
2021/12/08 00:51:22;;;;;;;;;;;;;;;;;;4911988;29;850;-59
2021/12/08 00:53:47;;;;;;;;;;;;;;;;;;4912321;29;814;-59
2021/12/08 00:56:13;;;;;;;;;;;;;;;;;;4911632;29;948;-59
2021/12/08 00:58:38;;;;;;;;;;;;;;;;;;4911457;29;1963;-59
2021/12/08 01:01:04;;;;;;;;;;;;;;;;;;4911515;29;913;-59
2021/12/08 01:03:29;;;;;;;;;;;;;;;;;;4911894;28;884;-59
2021/12/08 01:05:55;;;;;;;;;;;;;;;;;;4911821;29;984;-59
2021/12/08 01:08:22;;;;;;;;;;;;;;;;;;4911798;29;862;-59
2021/12/08 01:10:49;;;;;;;;;;;;;;;;;;4911404;29;1095;-60
2021/12/08 01:13:15;;;;;;;;;;;;;;;;;;4911901;29;928;-59
2021/12/08 01:15:43;;;;;;;;;;;;;;;;;;4911246;29;814;-59
2021/12/08 01:18:08;;;;;;;;;;;;;;;;;;4911272;29;1910;-59
2021/12/08 01:20:34;;;;;;;;;;;;;;;;;;4911274;29;790;-59
2021/12/08 01:23:00;;;;;;;;;;;;;;;;;;4911474;29;786;-59
2021/12/08 01:25:25;;;;;;;;;;;;;;;;;;4911077;29;909;-59
2021/12/08 01:27:50;;;;;;;;;;;;;;;;;;4911058;29;881;-59
2021/12/08 01:30:16;;;;;;;;;;;;;;;;;;4912775;29;908;-59
2021/12/08 01:32:41;;;;;;;;;;;;;;;;;;4914191;29;1000;-59
2021/12/08 01:35:07;;;;;;;;;;;;;;;;;;4914317;29;921;-59
2021/12/08 01:37:34;;;;;;;;;;;;;;;;;;4914266;29;913;-59
2021/12/08 01:39:59;;;;;;;;;;;;;;;;;;4914394;29;1972;-59
2021/12/08 01:42:33;;;;;;;;;;;;;;;;;;4914417;29;841;-59
2021/12/08 01:47:42;;;;;;;;;;;;;;;;;;4914504;29;671;-59
2021/12/08 01:50:09;;;;;;;;;;;;;;;;;;4914174;29;846;-59
2021/12/08 01:52:34;;;;;;;;;;;;;;;;;;4914079;29;900;-59
2021/12/08 01:55:00;;;;;;;;;;;;;;;;;;4913994;29;1075;-59
2021/12/08 01:57:25;;;;;;;;;;;;;;;;;;4914271;29;949;-59
2021/12/08 01:59:50;;;;;;;;;;;;;;;;;;4913998;29;1899;-59
2021/12/08 02:02:15;;;;;;;;;;;;;;;;;;4914450;29;905;-59
2021/12/08 02:04:42;;;;;;;;;;;;;;;;;;4908099;29;1129;-59
2021/12/08 02:07:08;;;;;;;;;;;;;;;;;;4911424;29;1166;-59
2021/12/08 02:09:33;;;;;;;;;;;;;;;;;;4911970;29;1150;-59
2021/12/08 02:11:59;;;;;;;;;;;;;;;;;;4911771;29;1245;-59
2021/12/08 02:14:24;;;;;;;;;;;;;;;;;;4903623;29;1232;-59
2021/12/08 02:16:50;;;;;;;;;;;;;;;;;;4893683;29;1800;-59
2021/12/08 02:19:15;;;;;;;;;;;;;;;;;;4895407;29;1980;-59
2021/12/08 02:21:42;;;;;;;;;;;;;;;;;;4895248;28;901;-59
2021/12/08 02:24:13;;;;;;;;;;;;;;;;;;4894826;29;921;-59
2021/12/08 02:26:40;;;;;;;;;;;;;;;;;;4895094;28;881;-59
2021/12/08 02:29:09;;;;;;;;;;;;;;;;;;4894979;28;894;-59
2021/12/08 02:50:17;;;;;;;;;;;;;;;;;;4894940;29;794;-59
2021/12/08 02:52:42;;;;;;;;;;;;;;;;;;4894467;28;570;-59
2021/12/08 02:55:08;;;;;;;;;;;;;;;;;;4894672;29;885;-59
2021/12/08 02:57:34;;;;;;;;;;;;;;;;;;4894643;28;961;-59
2021/12/08 02:59:59;;;;;;;;;;;;;;;;;;4894727;28;1902;-59
2021/12/08 03:02:24;;;;;;;;;;;;;;;;;;4894467;29;949;-60
2021/12/08 03:04:50;;;;;;;;;;;;;;;;;;4894365;28;948;-59
2021/12/08 03:07:16;;;;;;;;;;;;;;;;;;4894302;28;818;-59
2021/12/08 03:09:43;;;;;;;;;;;;;;;;;;4894037;28;877;-59
2021/12/08 03:12:09;;;;;;;;;;;;;;;;;;4894274;29;2260;-59
2021/12/08 03:14:36;;;;;;;;;;;;;;;;;;4894321;29;1104;-59
2021/12/08 03:17:04;;;;;;;;;;;;;;;;;;4893772;29;913;-59
2021/12/08 03:19:30;;;;;;;;;;;;;;;;;;4893949;29;1979;-59
2021/12/08 03:21:56;;;;;;;;;;;;;;;;;;4893641;29;1020;-59
2021/12/08 03:27:10;;;;;;;;;;;;;;;;;;4894035;29;1035;-59
2021/12/08 03:29:58;;;;;;;;;;;;;;;;;;4894064;28;1467;-59
2021/12/08 03:32:37;;;;;;;;;;;;;;;;;;4893803;29;936;-59
2021/12/08 03:35:04;;;;;;;;;;;;;;;;;;4893084;29;880;-59
2021/12/08 03:37:33;;;;;;;;;;;;;;;;;;4893957;29;1004;-59
2021/12/08 03:39:59;;;;;;;;;;;;;;;;;;4893435;28;1899;-59
2021/12/08 03:42:26;;;;;;;;;;;;;;;;;;4893673;29;909;-59
2021/12/08 03:44:54;;;;;;;;;;;;;;;;;;4893428;28;763;-59
2021/12/08 03:47:26;;;;;;;;;;;;;;;;;;4893360;29;885;-59
2021/12/08 03:49:51;;;;;;;;;;;;;;;;;;4893464;29;1128;-59
2021/12/08 03:52:16;;;;;;;;;;;;;;;;;;4893744;28;921;-59
2021/12/08 03:54:42;;;;;;;;;;;;;;;;;;4893601;29;921;-59
2021/12/08 03:57:08;;;;;;;;;;;;;;;;;;4893418;28;921;-59
2021/12/08 03:59:33;;;;;;;;;;;;;;;;;;4893232;28;1911;-58
2021/12/08 04:01:58;;;;;;;;;;;;;;;;;;4893219;28;983;-59
2021/12/08 04:04:27;;;;;;;;;;;;;;;;;;4893899;28;833;-59
2021/12/08 04:06:53;;;;;;;;;;;;;;;;;;4893652;28;889;-59
2021/12/08 04:09:29;;;;;;;;;;;;;;;;;;4893662;28;938;-59
2021/12/08 04:11:54;;;;;;;;;;;;;;;;;;4893098;29;1273;-59
2021/12/08 04:14:22;;;;;;;;;;;;;;;;;;4893494;28;953;-59
2021/12/08 04:16:51;;;;;;;;;;;;;;;;;;4893193;28;976;-59
2021/12/08 04:19:17;;;;;;;;;;;;;;;;;;4893546;28;1974;-59
2021/12/08 04:21:42;;;;;;;;;;;;;;;;;;4893518;29;826;-59
2021/12/08 04:24:08;;;;;;;;;;;;;;;;;;4892320;28;969;-59
2021/12/08 04:26:55;;;;;;;;;;;;;;;;;;4893845;28;1097;-59
2021/12/08 04:29:23;;;;;;;;;;;;;;;;;;4893975;29;1051;-59
2021/12/08 04:31:50;;;;;;;;;;;;;;;;;;4893634;28;1765;-59
2021/12/08 04:34:19;;;;;;;;;;;;;;;;;;4894237;28;849;-59
2021/12/08 04:36:47;;;;;;;;;;;;;;;;;;4894122;29;791;-59
2021/12/08 04:39:20;;;;;;;;;;;;;;;;;;4893807;29;1956;-59
2021/12/08 04:41:51;;;;;;;;;;;;;;;;;;4893983;28;893;-59
2021/12/08 05:08:15;;;;;;;;;;;;;;;;;;4944305;28;1116;-59
2021/12/08 05:10:41;;;;;;;;;;;;;;;;;;4896167;29;1036;-61
2021/12/08 05:13:08;;;;;;;;;;;;;;;;;;4895195;28;722;-61
2021/12/08 05:15:35;;;;;;;;;;;;;;;;;;4896161;29;604;-61
2021/12/08 05:18:00;;;;;;;;;;;;;;;;;;4895485;28;1918;-61
2021/12/08 05:20:26;;;;;;;;;;;;;;;;;;4895671;29;854;-61
2021/12/08 05:22:57;;;;;;;;;;;;;;;;;;4895790;28;892;-61
2021/12/08 05:25:26;;;;;;;;;;;;;;;;;;4895457;28;1011;-61
2021/12/08 05:27:53;;;;;;;;;;;;;;;;;;4895840;29;837;-61
2021/12/08 05:30:22;;;;;;;;;;;;;;;;;;4895599;29;956;-61
2021/12/08 05:32:49;;;;;;;;;;;;;;;;;;4895868;29;917;-59
2021/12/08 05:35:15;;;;;;;;;;;;;;;;;;4895780;29;958;-61
2021/12/08 05:37:40;;;;;;;;;;;;;;;;;;4895935;28;743;-61
2021/12/08 05:40:08;;;;;;;;;;;;;;;;;;4895922;29;1903;-61
2021/12/08 05:42:35;;;;;;;;;;;;;;;;;;4895882;28;790;-61
2021/12/08 05:45:01;;;;;;;;;;;;;;;;;;4895018;28;827;-61
2021/12/08 05:47:27;;;;;;;;;;;;;;;;;;4897674;28;1217;-61
2021/12/08 05:49:54;;;;;;;;;;;;;;;;;;4896052;29;1177;-61
2021/12/08 05:52:19;;;;;;;;;;;;;;;;;;4896254;29;1134;-61
2021/12/08 05:54:46;;;;;;;;;;;;;;;;;;4903287;29;1151;-60
2021/12/08 05:57:17;;;;;;;;;;;;;;;;;;4910772;28;1232;-61
2021/12/08 05:59:43;;;;;;;;;;;;;;;;;;4904471;28;1961;-61
2021/12/08 06:02:14;;;;;;;;;;;;;;;;;;4900145;29;1201;-61
2021/12/08 06:04:40;;;;;;;;;;;;;;;;;;4898797;29;1201;-61
2021/12/08 06:07:06;;;;;;;;;;;;;;;;;;4914238;29;1213;-61
2021/12/08 06:09:32;;;;;;;;;;;;;;;;;;4912514;29;1157;-61
2021/12/08 06:11:58;;;;;;;;;;;;;;;;;;4893984;29;1272;-61
2021/12/08 06:14:25;;;;;;;;;;;;;;;;;;4906164;29;1102;-61
2021/12/08 06:16:51;;;;;;;;;;;;;;;;;;4910315;28;1130;-61
2021/12/08 06:19:17;;;;;;;;;;;;;;;;;;4921818;29;1910;-61
2021/12/08 06:21:42;;;;;;;;;;;;;;;;;;4903982;29;1217;-58
2021/12/08 06:24:09;;;;;;;;;;;;;;;;;;4905961;29;1189;-61
2021/12/08 06:26:35;;;;;;;;;;;;;;;;;;4907651;29;1621;-61
2021/12/08 06:29:01;;;;;;;;;;;;;;;;;;4912532;28;1213;-61
2021/12/08 06:31:29;;;;;;;;;;;;;;;;;;4900281;29;1075;-58
2021/12/08 06:33:54;;;;;;;;;;;;;;;;;;4893256;28;1257;-61
2021/12/08 06:36:29;;;;;;;;;;;;;;;;;;4904198;28;1225;-61
2021/12/08 06:38:55;;;;;;;;;;;;;;;;;;4911743;29;1899;-61
2021/12/08 06:41:34;;;;;;;;;;;;;;;;;;4911799;29;1118;-61
2021/12/08 06:44:14;;;;;;;;;;;;;;;;;;4911977;29;1165;-61
2021/12/08 06:46:41;;;;;;;;;;;;;;;;;;4907285;29;1149;-61
2021/12/08 06:49:07;;;;;;;;;;;;;;;;;;4911653;29;1173;-61
2021/12/08 06:51:35;;;;;;;;;;;;;;;;;;4910620;29;1209;-61
2021/12/08 06:54:04;;;;;;;;;;;;;;;;;;4905642;28;1147;-61
2021/12/08 06:56:31;;;;;;;;;;;;;;;;;;4898320;28;1220;-61
2021/12/08 06:58:59;;;;;;;;;;;;;;;;;;4898899;29;1933;-61
2021/12/08 07:01:55;;;;;;;;;;;;;;;;;;4905317;29;1155;-61
2021/12/08 07:07:02;;;;;;;;;;;;;;;;;;4895564;29;1150;-61
2021/12/08 07:09:29;;;;;;;;;;;;;;;;;;4910909;29;1106;-61
2021/12/08 07:11:56;;;;;;;;;;;;;;;;;;4910925;29;1685;-61
2021/12/08 07:14:24;;;;;;;;;;;;;;;;;;4904023;29;1130;-61
2021/12/08 07:16:51;;;;;;;;;;;;;;;;;;4897015;28;1095;-59
2021/12/08 07:19:31;;;;;;;;;;;;;;;;;;4910644;28;1914;-62
2021/12/08 07:21:57;;;;;;;;;;;;;;;;;;4910937;29;1042;-61
2021/12/08 07:24:28;;;;;;;;;;;;;;;;;;4910792;29;1146;-61
2021/12/08 07:26:55;;;;;;;;;;;;;;;;;;4896774;28;1173;-61
2021/12/08 07:29:23;;;;;;;;;;;;;;;;;;4892235;28;1146;-61
2021/12/08 07:31:52;;;;;;;;;;;;;;;;;;4905147;29;1368;-61
2021/12/08 07:34:19;;;;;;;;;;;;;;;;;;4904076;28;1150;-61
2021/12/08 07:36:46;;;;;;;;;;;;;;;;;;4923359;29;1173;-61
2021/12/08 07:39:16;;;;;;;;;;;;;;;;;;4895062;28;1910;-61
2021/12/08 07:41:45;;;;;;;;;;;;;;;;;;4905451;29;1190;-61
2021/12/08 07:44:12;;;;;;;;;;;;;;;;;;4899112;28;1114;-60
2021/12/08 07:46:46;;;;;;;;;;;;;;;;;;4907131;29;1154;-61
2021/12/08 07:49:36;;;;;;;;;;;;;;;;;;4909669;29;1158;-61
2021/12/08 07:52:08;;;;;;;;;;;;;;;;;;4902459;28;1198;-60
2021/12/08 07:54:34;;;;;;;;;;;;;;;;;;4904495;29;1166;-60
2021/12/08 07:57:01;;;;;;;;;;;;;;;;;;4897418;28;1866;-60
2021/12/08 07:59:27;;;;;;;;;;;;;;;;;;4909740;29;1966;-60
2021/12/08 08:01:55;;;;;;;;;;;;;;;;;;4907895;28;1206;-60
2021/12/08 08:04:23;;;;;;;;;;;;;;;;;;4910624;29;1098;-60
2021/12/08 08:06:50;;;;;;;;;;;;;;;;;;4910702;29;1256;-60
2021/12/08 08:09:19;;;;;;;;;;;;;;;;;;4907759;29;1158;-60
2021/12/08 08:11:47;;;;;;;;;;;;;;;;;;4896803;28;1217;-60
2021/12/08 08:14:15;;;;;;;;;;;;;;;;;;4901511;28;1221;-60
2021/12/08 08:16:40;;;;;;;;;;;;;;;;;;4906276;29;1217;-60
2021/12/08 08:19:11;;;;;;;;;;;;;;;;;;4909643;28;1994;-61
2021/12/08 08:21:38;;;;;;;;;;;;;;;;;;4910296;29;1206;-60
2021/12/08 08:24:04;;;;;;;;;;;;;;;;;;4901446;29;1216;-61
2021/12/08 08:26:30;;;;;;;;;;;;;;;;;;4907322;29;1150;-60
2021/12/08 08:28:56;;;;;;;;;;;;;;;;;;4905862;29;1209;-61
2021/12/08 08:31:24;;;;;;;;;;;;;;;;;;4909694;29;1169;-61
2021/12/08 08:33:49;;;;;;;;;;;;;;;;;;4901486;29;1209;-61
2021/12/08 08:36:17;;;;;;;;;;;;;;;;;;4900920;28;1197;-61
2021/12/08 08:38:50;;;;;;;;;;;;;;;;;;4889912;28;1956;-61
2021/12/08 08:41:18;;;;;;;;;;;;;;;;;;4894068;29;1122;-61
2021/12/08 08:43:44;;;;;;;;;;;;;;;;;;4905866;29;1232;-61
2021/12/08 08:46:11;;;;;;;;;;;;;;;;;;4904559;28;1154;-61
2021/12/08 08:48:41;;;;;;;;;;;;;;;;;;4904041;29;1165;-61
2021/12/08 08:51:17;;;;;;;;;;;;;;;;;;4900353;28;1213;-61
2021/12/08 08:53:44;;;;;;;;;;;;;;;;;;4909202;28;1213;-61
2021/12/08 08:56:12;;;;;;;;;;;;;;;;;;4894958;29;1296;-61
2021/12/08 08:58:39;;;;;;;;;;;;;;;;;;4905863;29;1957;-61
2021/12/08 09:01:08;;;;;;;;;;;;;;;;;;4926589;29;1193;-60
2021/12/08 09:03:35;;;;;;;;;;;;;;;;;;4912474;29;1280;-60
2021/12/08 09:06:08;;;;;;;;;;;;;;;;;;4895214;28;1244;-61
2021/12/08 09:08:34;;;;;;;;;;;;;;;;;;4910495;29;1205;-61
2021/12/08 09:11:03;;;;;;;;;;;;;;;;;;4896918;29;1203;-61
2021/12/08 09:13:38;;;;;;;;;;;;;;;;;;4910882;29;1256;-61
2021/12/08 09:16:05;;;;;;;;;;;;;;;;;;4894297;28;1205;-61
2021/12/08 09:18:44;;;;;;;;;;;;;;;;;;4908982;29;1911;-61
2021/12/08 09:21:18;;;;;;;;;;;;;;;;;;4914757;29;1158;-61
2021/12/08 09:23:49;;;;;;;;;;;;;;;;;;4913017;29;1098;-61
2021/12/08 09:26:16;;;;;;;;;;;;;;;;;;4913061;29;1114;-60
2021/12/08 09:28:45;;;;;;;;;;;;;;;;;;4913373;29;1193;-61
2021/12/08 09:31:18;;;;;;;;;;;;;;;;;;4906326;28;1221;-61
2021/12/08 09:33:50;;;;;;;;;;;;;;;;;;4907201;28;1682;-60
2021/12/08 09:36:18;;;;;;;;;;;;;;;;;;4911477;29;1181;-61
2021/12/08 09:38:50;;;;;;;;;;;;;;;;;;4897454;28;1910;-60
2021/12/08 09:41:27;;;;;;;;;;;;;;;;;;4897900;29;1114;-61
2021/12/08 09:43:59;;;;;;;;;;;;;;;;;;4913180;29;1213;-60
2021/12/08 09:46:29;;;;;;;;;;;;;;;;;;4914132;29;1229;-60
2021/12/08 09:48:54;;;;;;;;;;;;;;;;;;4914145;29;1130;-60
2021/12/08 09:51:21;;;;;;;;;;;;;;;;;;4927937;28;1208;-61
2021/12/08 09:53:47;;;;;;;;;;;;;;;;;;4913473;29;1133;-60
2021/12/08 09:56:13;;;;;;;;;;;;;;;;;;4914043;29;1170;-60
2021/12/08 09:58:39;;;;;;;;;;;;;;;;;;4896509;28;1903;-60
2021/12/08 10:01:06;;;;;;;;;;;;;;;;;;4908973;28;1225;-60
2021/12/08 10:03:33;;;;;;;;;;;;;;;;;;4911392;29;1170;-60
2021/12/08 10:05:58;;;;;;;;;;;;;;;;;;4912717;29;1082;-59
2021/12/08 10:08:23;;;;;;;;;;;;;;;;;;4903701;29;1158;-59
2021/12/08 10:10:49;;;;;;;;;;;;;;;;;;4910426;29;1083;-59
2021/12/08 10:13:15;;;;;;;;;;;;;;;;;;4925004;29;1208;-60
2021/12/08 10:15:41;;;;;;;;;;;;;;;;;;4905550;29;1352;-59
2021/12/08 10:18:06;;;;;;;;;;;;;;;;;;4909898;28;1962;-60
2021/12/08 10:20:34;;;;;;;;;;;;;;;;;;4899178;29;1300;-59
2021/12/08 10:23:11;;;;;;;;;;;;;;;;;;4905816;29;1193;-59
2021/12/08 10:25:38;;;;;;;;;;;;;;;;;;4893580;28;1158;-59
2021/12/08 10:28:27;;;;;;;;;;;;;;;;;;4908964;28;1233;-60
2021/12/08 10:30:57;;;;;;;;;;;;;;;;;;4896989;29;1202;-60
2021/12/08 10:34:01;;;;;;;;;;;;;;;;;;4902206;28;1095;-59
2021/12/08 10:39:21;;;;;;;;;;;;;;;;;;4896945;28;1962;-60
2021/12/08 10:42:26;;;;;;;;;;;;;;;;;;4910651;29;1159;-59
2021/12/08 10:45:12;;;;;;;;;;;;;;;;;;4889964;28;1421;-60
2021/12/08 10:47:43;;;;;;;;;;;;;;;;;;4890668;29;1135;-60
2021/12/08 10:55:22;;;;;;;;;;;;;;;;;;4903751;28;1049;-60
2021/12/08 10:57:53;;;;;;;;;;;;;;;;;;4892981;28;1150;-60
2021/12/08 11:00:21;;;;;;;;;;;;;;;;;;4908952;29;1962;-60
2021/12/08 11:02:46;;;;;;;;;;;;;;;;;;4911610;29;1141;-60
2021/12/08 11:05:23;;;;;;;;;;;;;;;;;;4912213;29;1240;-59
2021/12/08 11:07:57;;;;;;;;;;;;;;;;;;4912115;29;1154;-59
2021/12/08 11:10:23;;;;;;;;;;;;;;;;;;4912523;29;1142;-59
2021/12/08 11:12:48;;;;;;;;;;;;;;;;;;4907212;29;1269;-59
2021/12/08 11:15:13;;;;;;;;;;;;;;;;;;4910123;29;1170;-59
2021/12/08 11:17:39;;;;;;;;;;;;;;;;;;4912655;29;1130;-60
2021/12/08 11:20:20;;;;;;;;;;;;;;;;;;4912556;29;1968;-59
2021/12/08 11:22:57;;;;;;;;;;;;;;;;;;4912449;29;925;-59
2021/12/08 11:25:31;;;;;;;;;;;;;;;;;;4911088;29;998;-59
2021/12/08 11:28:02;;;;;;;;;;;;;;;;;;4912561;29;861;-59
2021/12/08 11:30:32;;;;;;;;;;;;;;;;;;4912067;29;905;-60
2021/12/08 11:33:18;;;;;;;;;;;;;;;;;;4912782;29;995;-60
2021/12/08 11:35:44;;;;;;;;;;;;;;;;;;4911678;29;970;-59
2021/12/08 11:38:10;;;;;;;;;;;;;;;;;;4912757;29;1903;-60
2021/12/08 11:40:35;;;;;;;;;;;;;;;;;;4913034;29;948;-60
2021/12/08 11:43:01;;;;;;;;;;;;;;;;;;4912659;29;1004;-60
2021/12/08 11:45:26;;;;;;;;;;;;;;;;;;4912684;29;824;-60
2021/12/08 11:47:51;;;;;;;;;;;;;;;;;;4911170;29;972;-60
2021/12/08 11:50:22;;;;;;;;;;;;;;;;;;4912899;29;854;-59
2021/12/08 11:52:51;;;;;;;;;;;;;;;;;;4912692;29;854;-59
2021/12/08 11:55:19;;;;;;;;;;;;;;;;;;4912421;29;905;-60
2021/12/08 11:57:54;;;;;;;;;;;;;;;;;;4912766;29;827;-60
2021/12/08 12:00:34;;;;;;;;;;;;;;;;;;4912200;29;1911;-60
2021/12/08 12:03:02;;;;;;;;;;;;;;;;;;4911800;29;810;-60
2021/12/08 12:05:29;;;;;;;;;;;;;;;;;;4912359;29;888;-60
2021/12/08 12:07:54;;;;;;;;;;;;;;;;;;4911840;29;984;-60
2021/12/08 12:10:21;;;;;;;;;;;;;;;;;;4912351;29;1651;-60
2021/12/08 12:12:47;;;;;;;;;;;;;;;;;;4911816;29;1311;-60
2021/12/08 12:15:14;;;;;;;;;;;;;;;;;;4911877;28;642;-59
2021/12/08 12:17:39;;;;;;;;;;;;;;;;;;4911834;29;833;-60
2021/12/08 12:20:25;;;;;;;;;;;;;;;;;;4911544;29;1940;-60
2021/12/08 12:23:08;;;;;;;;;;;;;;;;;;4911977;29;818;-60
2021/12/08 12:25:35;;;;;;;;;;;;;;;;;;4912169;29;953;-60
2021/12/08 12:28:20;;;;;;;;;;;;;;;;;;4911803;29;1016;-60
2021/12/08 12:30:46;;;;;;;;;;;;;;;;;;4912119;29;858;-60
2021/12/08 12:33:16;;;;;;;;;;;;;;;;;;4912092;29;905;-60
2021/12/08 12:35:46;;;;;;;;;;;;;;;;;;4911634;29;820;-60
2021/12/08 12:38:13;;;;;;;;;;;;;;;;;;4911509;29;1899;-60
2021/12/08 12:40:40;;;;;;;;;;;;;;;;;;4911608;29;917;-60
2021/12/08 12:43:06;;;;;;;;;;;;;;;;;;4911338;29;818;-60
2021/12/08 12:45:39;;;;;;;;;;;;;;;;;;4912091;29;873;-60
2021/12/08 12:48:06;;;;;;;;;;;;;;;;;;4911545;29;912;-60
2021/12/08 12:50:31;;;;;;;;;;;;;;;;;;4912046;29;1148;-60
2021/12/08 12:52:58;;;;;;;;;;;;;;;;;;4911587;29;925;-60
2021/12/08 12:55:23;;;;;;;;;;;;;;;;;;4911588;29;1017;-60
2021/12/08 12:58:04;;;;;;;;;;;;;;;;;;4912146;29;834;-59
2021/12/08 13:00:34;;;;;;;;;;;;;;;;;;4912140;29;790;-60
2021/12/08 13:03:00;;;;;;;;;;;;;;;;;;4911463;29;825;-60
2021/12/08 13:05:44;;;;;;;;;;;;;;;;;;4911856;29;872;-60
2021/12/08 13:08:10;;;;;;;;;;;;;;;;;;4911358;29;988;-60
2021/12/08 13:10:39;;;;;;;;;;;;;;;;;;4912196;29;822;-60
2021/12/08 13:13:12;;;;;;;;;;;;;;;;;;4911186;29;1372;-60
2021/12/08 13:15:38;;;;;;;;;;;;;;;;;;4910755;28;1360;-60
2021/12/08 13:18:05;;;;;;;;;;;;;;;;;;4911350;29;851;-60
2021/12/08 13:20:33;;;;;;;;;;;;;;;;;;4911699;29;924;-60
2021/12/08 13:23:01;;;;;;;;;;;;;;;;;;4911522;29;810;-60
2021/12/08 13:28:20;;;;;;;;;;;;;;;;;;4914341;29;849;-60
2021/12/08 13:30:48;;;;;;;;;;;;;;;;;;4915392;29;857;-60
2021/12/08 13:33:32;;;;;;;;;;;;;;;;;;4914481;29;844;-60
2021/12/08 13:35:59;;;;;;;;;;;;;;;;;;4914344;29;871;-60
2021/12/08 13:38:25;;;;;;;;;;;;;;;;;;4914629;29;1907;-60
2021/12/08 13:40:55;;;;;;;;;;;;;;;;;;4914412;29;830;-61
2021/12/08 13:43:37;;;;;;;;;;;;;;;;;;4914287;29;1028;-60
2021/12/08 13:46:04;;;;;;;;;;;;;;;;;;4913703;29;901;-64
2021/12/08 13:48:30;;;;;;;;;;;;;;;;;;4913359;29;1534;-61
2021/12/08 13:51:13;;;;;;;;;;;;;;;;;;4903636;29;1119;-61
2021/12/08 13:53:38;;;;;;;;;;;;;;;;;;4895402;29;858;-61
2021/12/08 13:56:04;;;;;;;;;;;;;;;;;;4894818;29;861;-61
2021/12/08 13:58:34;;;;;;;;;;;;;;;;;;4895778;28;1895;-61
2021/12/08 14:01:01;;;;;;;;;;;;;;;;;;4895111;29;897;-61
2021/12/08 14:03:39;;;;;;;;;;;;;;;;;;4900770;28;1138;-61
2021/12/08 14:06:07;;;;;;;;;;;;;;;;;;4913446;28;1194;-61
2021/12/08 14:08:34;;;;;;;;;;;;;;;;;;4914179;29;881;-61
2021/12/08 14:11:02;;;;;;;;;;;;;;;;;;4914072;29;981;-61
2021/12/08 14:13:32;;;;;;;;;;;;;;;;;;4912482;29;837;-61
2021/12/08 14:15:57;;;;;;;;;;;;;;;;;;4914130;29;775;-61
2021/12/08 14:18:36;;;;;;;;;;;;;;;;;;4913478;29;1919;-61
2021/12/08 14:21:05;;;;;;;;;;;;;;;;;;4913816;29;822;-61
2021/12/08 14:23:33;;;;;;;;;;;;;;;;;;4914162;29;846;-61
2021/12/08 14:25:59;;;;;;;;;;;;;;;;;;4914095;29;878;-61
2021/12/08 14:28:43;;;;;;;;;;;;;;;;;;4928435;29;857;-61
2021/12/08 14:31:25;;;;;;;;;;;;;;;;;;4913583;29;1153;-61
2021/12/08 14:33:53;;;;;;;;;;;;;;;;;;4914006;29;813;-60
2021/12/08 14:36:24;;;;;;;;;;;;;;;;;;4913586;29;893;-60
2021/12/08 14:38:54;;;;;;;;;;;;;;;;;;4913008;29;1903;-60
2021/12/08 14:41:20;;;;;;;;;;;;;;;;;;4913992;29;821;-60
2021/12/08 14:43:48;;;;;;;;;;;;;;;;;;4914181;29;878;-60
2021/12/08 14:46:20;;;;;;;;;;;;;;;;;;4927860;29;811;-60
2021/12/08 14:48:55;;;;;;;;;;;;;;;;;;4913525;29;905;-60
2021/12/08 14:51:24;;;;;;;;;;;;;;;;;;4913406;29;889;-60
2021/12/08 14:53:50;;;;;;;;;;;;;;;;;;4913472;29;825;-60
2021/12/08 14:56:15;;;;;;;;;;;;;;;;;;4913517;29;901;-60
2021/12/08 14:58:40;;;;;;;;;;;;;;;;;;4913393;29;1962;-60
2021/12/08 15:01:07;;;;;;;;;;;;;;;;;;4913243;29;889;-60
2021/12/08 15:03:43;;;;;;;;;;;;;;;;;;4928547;29;900;-60
2021/12/08 15:06:19;;;;;;;;;;;;;;;;;;4912878;29;1210;-60
2021/12/08 15:08:45;;;;;;;;;;;;;;;;;;4913569;29;1025;-60
2021/12/08 15:11:16;;;;;;;;;;;;;;;;;;4913118;29;1217;-60
2021/12/08 15:13:42;;;;;;;;;;;;;;;;;;4913817;29;897;-60
2021/12/08 15:16:11;;;;;;;;;;;;;;;;;;4912831;29;1252;-60
2021/12/08 15:18:36;;;;;;;;;;;;;;;;;;4912118;29;1919;-59
2021/12/08 15:21:05;;;;;;;;;;;;;;;;;;4913023;29;912;-60
2021/12/08 15:23:43;;;;;;;;;;;;;;;;;;4913578;29;855;-60
2021/12/08 15:26:10;;;;;;;;;;;;;;;;;;4913428;29;893;-60
2021/12/08 15:28:36;;;;;;;;;;;;;;;;;;4912238;28;2490;-60
2021/12/08 15:31:02;;;;;;;;;;;;;;;;;;4913238;29;830;-60
2021/12/08 15:33:28;;;;;;;;;;;;;;;;;;4913022;29;779;-60
2021/12/08 15:36:03;;;;;;;;;;;;;;;;;;4913268;29;905;-60
2021/12/08 15:38:28;;;;;;;;;;;;;;;;;;4913702;29;1910;-60
2021/12/08 15:40:53;;;;;;;;;;;;;;;;;;4913238;29;795;-60
2021/12/08 15:43:20;;;;;;;;;;;;;;;;;;4913047;29;979;-60
2021/12/08 15:45:47;;;;;;;;;;;;;;;;;;4912797;29;858;-60
2021/12/08 15:48:13;;;;;;;;;;;;;;;;;;4912467;29;1072;-60
2021/12/08 15:50:43;;;;;;;;;;;;;;;;;;4913049;29;846;-60
2021/12/08 15:53:14;;;;;;;;;;;;;;;;;;4912509;29;941;-60
2021/12/08 15:55:40;;;;;;;;;;;;;;;;;;4913117;29;897;-60
2021/12/08 15:58:07;;;;;;;;;;;;;;;;;;4912861;29;913;-60
2021/12/08 16:00:34;;;;;;;;;;;;;;;;;;4912166;29;1984;-60
2021/12/08 16:02:59;;;;;;;;;;;;;;;;;;4912826;29;779;-60
2021/12/08 16:05:24;;;;;;;;;;;;;;;;;;4912637;29;950;-60
2021/12/08 16:07:49;;;;;;;;;;;;;;;;;;4927296;29;1633;-60
2021/12/08 16:10:19;;;;;;;;;;;;;;;;;;4912068;29;911;-60
2021/12/08 16:12:52;;;;;;;;;;;;;;;;;;4912872;29;1305;-60
2021/12/08 16:15:17;;;;;;;;;;;;;;;;;;4912466;29;913;-60
2021/12/08 16:17:43;;;;;;;;;;;;;;;;;;4911561;29;1369;-60
2021/12/08 16:20:10;;;;;;;;;;;;;;;;;;4912602;29;1977;-60
2021/12/08 16:22:36;;;;;;;;;;;;;;;;;;4912830;29;865;-60
2021/12/08 16:25:01;;;;;;;;;;;;;;;;;;4909549;29;1201;-60
2021/12/08 16:27:30;;;;;;;;;;;;;;;;;;4912357;29;929;-60
2021/12/08 16:29:56;;;;;;;;;;;;;;;;;;4912598;29;979;-60
2021/12/08 16:32:22;;;;;;;;;;;;;;;;;;4911853;29;869;-60
2021/12/08 16:34:49;;;;;;;;;;;;;;;;;;4910945;29;858;-60
2021/12/08 16:37:14;;;;;;;;;;;;;;;;;;4912477;29;794;-60
2021/12/08 16:45:08;;;;;;;;;;;;;;;;;;4912527;29;656;-60
2021/12/08 16:47:34;;;;;;;;;;;;;;;;;;4912279;29;918;-60
2021/12/08 16:49:59;;;;;;;;;;;;;;;;;;4912252;29;936;-60
2021/12/08 16:52:25;;;;;;;;;;;;;;;;;;4912131;29;901;-60
2021/12/08 16:54:52;;;;;;;;;;;;;;;;;;4912532;29;902;-60
2021/12/08 16:57:17;;;;;;;;;;;;;;;;;;4911959;29;855;-60
2021/12/08 16:59:42;;;;;;;;;;;;;;;;;;4912306;29;1875;-60
2021/12/08 17:02:08;;;;;;;;;;;;;;;;;;4914555;29;944;-60
2021/12/08 17:04:33;;;;;;;;;;;;;;;;;;4915239;29;1043;-60
2021/12/08 17:06:58;;;;;;;;;;;;;;;;;;4915309;29;1003;-60
2021/12/08 17:09:24;;;;;;;;;;;;;;;;;;4915288;29;810;-60
2021/12/08 17:11:49;;;;;;;;;;;;;;;;;;4915118;29;1186;-60
2021/12/08 17:14:14;;;;;;;;;;;;;;;;;;4913911;29;1292;-60
2021/12/08 17:16:40;;;;;;;;;;;;;;;;;;4914749;29;845;-60
2021/12/08 17:19:09;;;;;;;;;;;;;;;;;;4914834;29;1911;-60
2021/12/08 17:21:34;;;;;;;;;;;;;;;;;;4914937;29;897;-60
2021/12/08 17:23:59;;;;;;;;;;;;;;;;;;4914680;29;984;-60
2021/12/08 17:26:26;;;;;;;;;;;;;;;;;;4914632;29;795;-60
2021/12/08 17:28:51;;;;;;;;;;;;;;;;;;4914405;29;909;-60
2021/12/08 17:31:17;;;;;;;;;;;;;;;;;;4914769;29;783;-60
2021/12/08 17:33:43;;;;;;;;;;;;;;;;;;4929118;29;1200;-60
2021/12/08 17:36:09;;;;;;;;;;;;;;;;;;4914433;29;890;-60
2021/12/08 17:38:35;;;;;;;;;;;;;;;;;;4913068;29;1914;-60
2021/12/08 17:41:02;;;;;;;;;;;;;;;;;;4914579;29;1218;-61
2021/12/08 17:43:29;;;;;;;;;;;;;;;;;;4914465;29;924;-60
2021/12/08 17:45:54;;;;;;;;;;;;;;;;;;4914754;29;872;-60
2021/12/08 17:48:19;;;;;;;;;;;;;;;;;;4914449;29;1047;-61
2021/12/08 17:50:45;;;;;;;;;;;;;;;;;;4914647;29;846;-61
2021/12/08 17:53:10;;;;;;;;;;;;;;;;;;4914347;29;802;-61
2021/12/08 17:55:35;;;;;;;;;;;;;;;;;;4913873;29;875;-61
2021/12/08 17:58:01;;;;;;;;;;;;;;;;;;4914218;29;839;-60
2021/12/08 18:00:28;;;;;;;;;;;;;;;;;;4913907;29;1966;-60
2021/12/08 18:02:54;;;;;;;;;;;;;;;;;;4912839;29;668;-60
2021/12/08 18:05:19;;;;;;;;;;;;;;;;;;4914199;29;803;-60
2021/12/08 18:07:45;;;;;;;;;;;;;;;;;;4914212;29;905;-61
2021/12/08 18:10:10;;;;;;;;;;;;;;;;;;4913849;29;901;-60
2021/12/08 18:12:36;;;;;;;;;;;;;;;;;;4913322;29;1154;-60
2021/12/08 18:15:03;;;;;;;;;;;;;;;;;;4914303;29;838;-61
2021/12/08 18:17:28;;;;;;;;;;;;;;;;;;4913971;29;1128;-61
2021/12/08 18:19:53;;;;;;;;;;;;;;;;;;4914299;29;1972;-61
2021/12/08 18:22:19;;;;;;;;;;;;;;;;;;4928600;29;845;-61
2021/12/08 18:24:44;;;;;;;;;;;;;;;;;;4914473;29;809;-61
2021/12/08 18:27:09;;;;;;;;;;;;;;;;;;4913744;29;984;-60
2021/12/08 18:29:35;;;;;;;;;;;;;;;;;;4913927;29;857;-60